^^
B2 Weather Station Historical Data
Daily Summary for July 15, 2018 Units:  English    Metric   Both
Daily Weekly Monthly Yearly Custom
  High: Low: Average:
Temperature: 90.1 °F 67.5 °F 78.8 °F
Dew Point: 77.9 °F 65.7 °F 72.6 °F
Humidity: 94% 59% 83%
Wind Speed: 10.4mph 0.0mph 1.5mph
Wind Gust: 5.2mph - -
Wind- - South
Pressure: 29.99 in 29.87 in -
Precipitation: 0.01 in    
Historical Graphs
 
 
Tabular Data for July 15, 2018
Time Temperature Dew Point Pressure Wind Wind Speed Wind Gust Humidity Rainfall Rate (Hourly) solar
00:04 71.2 °F 69.1 °F 29.97 in Calm     93% 0.00 in 0.00 W/m2
00:09 70.9 °F 68.8 °F 29.97 in Calm     93% 0.00 in 0.00 W/m2
00:14 71.0 °F 69.2 °F 29.97 in Calm     94% 0.00 in 0.00 W/m2
00:19 71.0 °F 69.2 °F 29.97 in Calm     94% 0.00 in 0.00 W/m2
00:24 70.8 °F 69.0 °F 29.97 in Calm     94% 0.00 in 0.00 W/m2
00:29 70.6 °F 68.8 °F 29.97 in Calm     94% 0.00 in 0.00 W/m2
00:34 70.7 °F 68.9 °F 29.97 in Calm     94% 0.00 in 0.00 W/m2
00:39 70.9 °F 69.1 °F 29.97 in Calm     94% 0.00 in 0.00 W/m2
00:44 71.3 °F 69.5 °F 29.97 in Calm     94% 0.00 in 0.00 W/m2
00:49 71.5 °F 69.7 °F 29.97 in Calm     94% 0.00 in 0.00 W/m2
00:54 71.6 °F 69.8 °F 29.97 in Calm     94% 0.00 in 0.00 W/m2
00:59 71.7 °F 69.9 °F 29.97 in Calm     94% 0.00 in 0.00 W/m2
01:04 71.9 °F 70.1 °F 29.97 in Calm     94% 0.00 in 0.00 W/m2
01:09 72.0 °F 70.2 °F 29.97 in Calm     94% 0.00 in 0.00 W/m2
01:14 72.2 °F 70.4 °F 29.97 in Calm     94% 0.00 in 0.00 W/m2
01:19 72.2 °F 70.4 °F 29.97 in Calm     94% 0.00 in 0.00 W/m2
01:24 72.2 °F 70.4 °F 29.97 in Calm     94% 0.00 in 0.00 W/m2
01:29 72.2 °F 70.1 °F 29.97 in Calm     93% 0.00 in 0.00 W/m2
01:34 72.1 °F 70.0 °F 29.97 in Calm     93% 0.00 in 0.00 W/m2
01:39 72.0 °F 69.9 °F 29.97 in Calm     93% 0.00 in 0.00 W/m2
01:44 71.8 °F 69.7 °F 29.97 in Calm     93% 0.00 in 0.00 W/m2
01:49 71.6 °F 69.5 °F 29.97 in Calm     93% 0.00 in 0.00 W/m2
01:54 71.6 °F 69.8 °F 29.97 in Calm     94% 0.00 in 0.00 W/m2
01:59 71.6 °F 69.8 °F 29.97 in Calm     94% 0.00 in 0.00 W/m2
02:04 71.6 °F 69.8 °F 29.97 in Calm     94% 0.00 in 0.00 W/m2
02:09 71.6 °F 69.5 °F 29.98 in Calm     93% 0.00 in 0.00 W/m2
02:14 71.7 °F 69.6 °F 29.97 in Calm     93% 0.00 in 0.00 W/m2
02:19 71.7 °F 69.6 °F 29.97 in Calm     93% 0.00 in 0.00 W/m2
02:24 71.7 °F 69.6 °F 29.98 in Calm     93% 0.00 in 0.00 W/m2
02:29 71.8 °F 69.7 °F 29.98 in Calm     93% 0.00 in 0.00 W/m2
02:34 71.9 °F 69.8 °F 29.98 in Calm     93% 0.00 in 0.00 W/m2
02:39 72.0 °F 69.5 °F 29.98 in Calm     92% 0.00 in 0.00 W/m2
02:44 72.0 °F 69.5 °F 29.98 in Calm     92% 0.00 in 0.00 W/m2
02:49 71.8 °F 69.3 °F 29.98 in Calm     92% 0.00 in 0.00 W/m2
02:54 71.7 °F 69.3 °F 29.99 in Calm     92% 0.00 in 0.00 W/m2
02:59 71.5 °F 69.1 °F 29.99 in Calm     92% 0.00 in 0.00 W/m2
03:04 71.5 °F 69.1 °F 29.98 in Calm     92% 0.00 in 0.00 W/m2
03:09 71.5 °F 69.4 °F 29.99 in Calm     93% 0.00 in 0.00 W/m2
03:14 71.4 °F 69.3 °F 29.99 in Calm     93% 0.00 in 0.00 W/m2
03:19 71.3 °F 68.9 °F 29.99 in Calm     92% 0.00 in 0.00 W/m2
03:24 71.1 °F 68.7 °F 29.99 in Calm     92% 0.00 in 0.00 W/m2
03:29 71.0 °F 68.9 °F 29.99 in Calm     93% 0.00 in 0.00 W/m2
03:34 70.6 °F 68.2 °F 29.98 in Calm     92% 0.00 in 0.00 W/m2
03:39 70.0 °F 67.6 °F 29.98 in Calm     92% 0.00 in 0.00 W/m2
03:44 69.7 °F 67.6 °F 29.99 in Calm     93% 0.00 in 0.00 W/m2
03:49 69.5 °F 67.4 °F 29.98 in Calm     93% 0.00 in 0.00 W/m2
03:54 69.3 °F 67.2 °F 29.98 in Calm     93% 0.00 in 0.00 W/m2
03:59 68.9 °F 66.8 °F 29.98 in Calm     93% 0.00 in 0.00 W/m2
04:04 68.8 °F 66.7 °F 29.98 in Calm     93% 0.00 in 0.00 W/m2
04:09 68.4 °F 66.3 °F 29.98 in Calm     93% 0.00 in 0.00 W/m2
04:14 68.3 °F 66.2 °F 29.98 in Calm     93% 0.00 in 0.00 W/m2
04:19 68.3 °F 66.5 °F 29.97 in Calm     94% 0.00 in 0.00 W/m2
04:24 68.1 °F 66.3 °F 29.97 in Calm     94% 0.00 in 0.00 W/m2
04:29 67.9 °F 65.8 °F 29.97 in Calm     93% 0.00 in 0.00 W/m2
04:34 67.8 °F 66.0 °F 29.97 in Calm     94% 0.00 in 0.00 W/m2
04:39 68.1 °F 66.3 °F 29.97 in Calm     94% 0.00 in 0.00 W/m2
04:44 68.3 °F 66.5 °F 29.97 in Calm     94% 0.00 in 0.00 W/m2
04:49 68.3 °F 66.5 °F 29.97 in Calm     94% 0.00 in 0.00 W/m2
04:54 68.5 °F 66.7 °F 29.97 in Calm     94% 0.00 in 0.00 W/m2
04:59 68.5 °F 66.7 °F 29.96 in Calm     94% 0.00 in 0.00 W/m2
05:04 68.3 °F 66.5 °F 29.96 in Calm     94% 0.00 in 0.00 W/m2
05:09 68.1 °F 66.3 °F 29.96 in Calm     94% 0.00 in 0.00 W/m2
05:14 67.9 °F 66.1 °F 29.96 in Calm     94% 0.00 in 0.00 W/m2
05:19 67.8 °F 66.0 °F 29.96 in Calm     94% 0.00 in 0.00 W/m2
05:24 67.9 °F 66.1 °F 29.97 in Calm     94% 0.00 in 0.00 W/m2
05:29 67.7 °F 65.9 °F 29.97 in Calm     94% 0.00 in 0.00 W/m2
05:34 67.5 °F 65.7 °F 29.97 in Calm     94% 0.00 in 0.00 W/m2
05:39 67.5 °F 65.7 °F 29.97 in Calm     94% 0.00 in 0.00 W/m2
05:44 67.6 °F 65.8 °F 29.98 in Calm     94% 0.00 in 0.00 W/m2
05:49 67.8 °F 66.0 °F 29.98 in Calm     94% 0.00 in 0.00 W/m2
05:54 68.0 °F 66.2 °F 29.98 in Calm     94% 0.00 in 5.00 W/m2
05:59 67.8 °F 66.0 °F 29.98 in Calm     94% 0.00 in 5.00 W/m2
06:04 67.8 °F 66.0 °F 29.98 in Calm     94% 0.00 in 7.00 W/m2
06:09 67.9 °F 66.1 °F 29.99 in Calm     94% 0.00 in 11.00 W/m2
06:14 68.0 °F 66.2 °F 29.99 in Calm     94% 0.00 in 14.00 W/m2
06:19 68.0 °F 66.2 °F 29.99 in Calm     94% 0.00 in 19.00 W/m2
06:24 68.1 °F 66.3 °F 29.99 in Calm     94% 0.00 in 42.00 W/m2
06:29 68.1 °F 66.3 °F 29.99 in Calm     94% 0.00 in 49.00 W/m2
06:34 68.4 °F 66.6 °F 29.99 in Calm     94% 0.00 in 54.00 W/m2
06:39 68.7 °F 66.9 °F 29.99 in Calm     94% 0.00 in 53.00 W/m2
06:44 69.0 °F 67.2 °F 29.99 in Calm     94% 0.00 in 54.00 W/m2
06:49 69.2 °F 67.4 °F 29.99 in Calm     94% 0.00 in 65.00 W/m2
06:54 69.6 °F 67.8 °F 29.98 in Calm     94% 0.00 in 84.00 W/m2
06:59 70.0 °F 68.2 °F 29.98 in Calm     94% 0.00 in 76.00 W/m2
07:04 70.4 °F 68.6 °F 29.98 in Calm     94% 0.00 in 62.00 W/m2
07:09 70.7 °F 68.9 °F 29.98 in Calm     94% 0.00 in 65.00 W/m2
07:14 70.9 °F 69.1 °F 29.98 in Calm     94% 0.00 in 70.00 W/m2
07:19 71.2 °F 69.4 °F 29.98 in Calm     94% 0.00 in 63.00 W/m2
07:24 71.4 °F 69.6 °F 29.98 in Calm     94% 0.00 in 190.00 W/m2
07:29 71.9 °F 70.1 °F 29.98 in South 2.3 mph 1.3 mph 94% 0.00 in 211.00 W/m2
07:34 72.5 °F 70.7 °F 29.98 in Calm     94% 0.00 in 230.00 W/m2
07:39 73.0 °F 71.2 °F 29.98 in Calm     94% 0.00 in 257.00 W/m2
07:44 73.5 °F 71.7 °F 29.98 in SSE 3.0 mph 1.3 mph 94% 0.00 in 272.00 W/m2
07:49 74.1 °F 72.3 °F 29.98 in Calm     94% 0.00 in 287.00 W/m2
07:54 74.6 °F 72.8 °F 29.97 in SSE 4.6 mph 0.6 mph 94% 0.00 in 301.00 W/m2
07:59 74.9 °F 73.1 °F 29.97 in South 2.0 mph 0.2 mph 94% 0.00 in 330.00 W/m2
08:04 75.3 °F 73.5 °F 29.97 in SSE 3.5 mph 2.5 mph 94% 0.00 in 339.00 W/m2
08:09 75.7 °F 73.8 °F 29.96 in South 3.5 mph 1.3 mph 94% 0.00 in 362.00 W/m2
08:14 76.0 °F 73.8 °F 29.96 in SSE 4.6 mph 0.1 mph 93% 0.00 in 353.00 W/m2
08:19 76.4 °F 74.2 °F 29.96 in SSE 3.5 mph   93% 0.00 in 179.00 W/m2
08:24 76.6 °F 74.1 °F 29.96 in SSW 2.3 mph 1.1 mph 92% 0.00 in 374.00 W/m2
08:29 76.8 °F 74.3 °F 29.96 in Calm     92% 0.00 in 338.00 W/m2
08:34 77.2 °F 74.7 °F 29.96 in Calm     92% 0.00 in 355.00 W/m2
08:39 77.8 °F 75.3 °F 29.96 in Calm     92% 0.00 in 336.00 W/m2
08:44 78.0 °F 74.8 °F 29.96 in Calm     90% 0.00 in 345.00 W/m2
08:49 78.5 °F 75.7 °F 29.95 in SSE 3.0 mph 0.3 mph 91% 0.00 in 385.00 W/m2
08:54 78.9 °F 75.4 °F 29.96 in Calm     89% 0.00 in 413.00 W/m2
08:59 79.3 °F 75.4 °F 29.96 in South 4.6 mph 0.1 mph 88% 0.00 in 429.00 W/m2
09:04 79.6 °F 75.0 °F 29.96 in Calm     86% 0.00 in 459.00 W/m2
09:09 79.9 °F 75.3 °F 29.96 in Calm     86% 0.00 in 494.00 W/m2
09:14 80.3 °F 75.4 °F 29.95 in SSE 2.3 mph   85% 0.00 in 524.00 W/m2
09:19 80.6 °F 75.7 °F 29.95 in Calm     85% 0.00 in 552.00 W/m2
09:24 81.0 °F 76.1 °F 29.95 in SE 1.0 mph   85% 0.00 in 575.00 W/m2
09:29 81.5 °F 75.5 °F 29.95 in SSE 4.6 mph 0.1 mph 82% 0.00 in 589.00 W/m2
09:34 81.7 °F 74.9 °F 29.95 in Calm     80% 0.00 in 592.00 W/m2
09:39 82.1 °F 75.3 °F 29.95 in SSE 4.0 mph 1.6 mph 80% 0.00 in 612.00 W/m2
09:44 82.5 °F 74.9 °F 29.96 in SSW 1.2 mph   78% 0.00 in 621.00 W/m2
09:49 82.7 °F 75.5 °F 29.95 in SSE 3.0 mph 0.5 mph 79% 0.00 in 633.00 W/m2
09:54 83.2 °F 75.6 °F 29.96 in SSE 5.8 mph 1.5 mph 78% 0.00 in 650.00 W/m2
09:59 83.6 °F 76.0 °F 29.95 in Calm   0.5 mph 78% 0.00 in 656.00 W/m2
10:04 83.6 °F 75.2 °F 29.95 in Calm     76% 0.00 in 668.00 W/m2
10:09 83.7 °F 75.3 °F 29.95 in Calm     76% 0.00 in 680.00 W/m2
10:14 84.1 °F 75.7 °F 29.95 in Calm   0.4 mph 76% 0.00 in 691.00 W/m2
10:19 84.3 °F 75.5 °F 29.95 in SSW 2.3 mph 0.1 mph 75% 0.00 in 701.00 W/m2
10:24 84.6 °F 76.2 °F 29.95 in SE 1.2 mph   76% 0.00 in 719.00 W/m2
10:29 85.0 °F 76.2 °F 29.95 in SSE 3.0 mph 0.8 mph 75% 0.00 in 738.00 W/m2
10:34 85.2 °F 74.7 °F 29.95 in SSE 7.0 mph 1.7 mph 71% 0.00 in 765.00 W/m2
10:39 85.2 °F 73.9 °F 29.95 in South 5.8 mph 2.4 mph 69% 0.00 in 745.00 W/m2
10:44 85.3 °F 74.4 °F 29.95 in SSW 5.8 mph 1.1 mph 70% 0.00 in 742.00 W/m2
10:49 85.2 °F 73.9 °F 29.95 in Calm     69% 0.00 in 749.00 W/m2
10:54 85.5 °F 74.2 °F 29.95 in South 2.3 mph 0.2 mph 69% 0.00 in 745.00 W/m2
10:59 85.9 °F 74.1 °F 29.95 in Calm     68% 0.00 in 724.00 W/m2
11:04 86.1 °F 73.9 °F 29.95 in Calm     67% 0.00 in 680.00 W/m2
11:09 86.3 °F 74.0 °F 29.95 in SW 3.5 mph   67% 0.00 in 728.00 W/m2
11:14 86.1 °F 73.9 °F 29.95 in SSW 6.9 mph 0.7 mph 67% 0.00 in 715.00 W/m2
11:19 86.0 °F 73.3 °F 29.95 in SW 1.2 mph 1.2 mph 66% 0.00 in 745.00 W/m2
11:24 86.2 °F 73.5 °F 29.95 in SW 6.9 mph 3.9 mph 66% 0.00 in 742.00 W/m2
11:29 86.3 °F 74.0 °F 29.95 in SSE 4.6 mph   67% 0.00 in 279.00 W/m2
11:34 86.4 °F 75.0 °F 29.95 in SSW 3.5 mph 1.3 mph 69% 0.00 in 478.00 W/m2
11:39 86.6 °F 73.9 °F 29.95 in South 4.6 mph 2.0 mph 66% 0.00 in 610.00 W/m2
11:44 86.6 °F 73.9 °F 29.95 in South 4.6 mph 2.0 mph 66% 0.00 in 515.00 W/m2
11:49 86.9 °F 74.6 °F 29.95 in ESE 4.6 mph 1.3 mph 67% 0.00 in 824.00 W/m2
11:54 87.4 °F 74.2 °F 29.95 in South 1.2 mph   65% 0.00 in 932.00 W/m2
11:59 87.6 °F 73.4 °F 29.95 in South 8.1 mph 4.9 mph 63% 0.00 in 1107.00 W/m2
12:04 87.9 °F 73.7 °F 29.95 in South 6.9 mph   63% 0.00 in 807.00 W/m2
12:09 88.0 °F 73.3 °F 29.95 in SSW 9.2 mph 1.2 mph 62% 0.00 in 566.00 W/m2
12:14 87.8 °F 74.1 °F 29.95 in SSW 3.5 mph 1.2 mph 64% 0.00 in 870.00 W/m2
12:19 88.3 °F 74.1 °F 29.95 in SW 3.5 mph 2.5 mph 63% 0.00 in 984.00 W/m2
12:24 88.1 °F 73.4 °F 29.95 in Calm     62% 0.00 in 1081.00 W/m2
12:29 88.2 °F 73.5 °F 29.95 in SSE 1.0 mph 0.1 mph 62% 0.00 in 1081.00 W/m2
12:34 88.4 °F 74.7 °F 29.95 in Calm   0.4 mph 64% 0.00 in 928.00 W/m2
12:39 88.9 °F 73.7 °F 29.95 in SSE 5.8 mph 0.7 mph 61% 0.00 in 953.00 W/m2
12:44 89.0 °F 74.3 °F 29.95 in SSW 6.9 mph 4.4 mph 62% 0.00 in 1023.00 W/m2
12:49 89.2 °F 74.5 °F 29.95 in SW 3.5 mph 0.7 mph 62% 0.00 in 1005.00 W/m2
12:54 89.0 °F 72.8 °F 29.95 in Calm     59% 0.00 in 932.00 W/m2
12:59 88.8 °F 73.6 °F 29.95 in SSW 8.1 mph 5.2 mph 61% 0.00 in 568.00 W/m2
13:04 89.2 °F 75.9 °F 29.95 in SSE 6.9 mph 2.8 mph 65% 0.00 in 1079.00 W/m2
13:09 89.5 °F 74.3 °F 29.95 in Calm   0.2 mph 61% 0.00 in 909.00 W/m2
13:14 89.2 °F 74.5 °F 29.95 in SW 5.8 mph 0.1 mph 62% 0.00 in 1106.00 W/m2
13:19 89.2 °F 74.5 °F 29.94 in South 5.0 mph 4.0 mph 62% 0.00 in 995.00 W/m2
13:24 89.3 °F 74.1 °F 29.94 in SSE 5.8 mph 3.7 mph 61% 0.00 in 919.00 W/m2
13:29 89.1 °F 74.9 °F 29.94 in South 6.9 mph 1.6 mph 63% 0.00 in 909.00 W/m2
13:34 89.2 °F 74.0 °F 29.94 in SSW 8.1 mph 2.7 mph 61% 0.00 in 916.00 W/m2
13:39 88.9 °F 73.7 °F 29.94 in SE 5.8 mph 1.7 mph 61% 0.00 in 942.00 W/m2
13:44 89.5 °F 74.8 °F 29.94 in South 4.6 mph   62% 0.00 in 970.00 W/m2
13:49 89.3 °F 74.6 °F 29.94 in SSE 5.0 mph 1.5 mph 62% 0.00 in 290.00 W/m2
13:54 89.0 °F 75.2 °F 29.94 in SSW 3.5 mph 0.1 mph 64% 0.00 in 1030.00 W/m2
13:59 88.7 °F 74.5 °F 29.94 in SW 5.8 mph 2.4 mph 63% 0.00 in 343.00 W/m2
14:04 88.7 °F 75.9 °F 29.94 in SSE 3.5 mph 2.9 mph 66% 0.00 in 1032.00 W/m2
14:09 88.4 °F 75.6 °F 29.93 in SE 6.0 mph 2.0 mph 66% 0.00 in 239.00 W/m2
14:14 87.4 °F 75.1 °F 29.93 in Calm     67% 0.00 in 287.00 W/m2
14:19 86.8 °F 75.0 °F 29.93 in ESE 5.0 mph 0.9 mph 68% 0.00 in 299.00 W/m2
14:24 87.1 °F 75.7 °F 29.93 in Calm     69% 0.00 in 926.00 W/m2
14:29 88.1 °F 74.8 °F 29.93 in SSE 6.9 mph 0.1 mph 65% 0.00 in 925.00 W/m2
14:34 88.6 °F 75.3 °F 29.93 in SSE 5.0 mph 4.1 mph 65% 0.00 in 329.00 W/m2
14:39 87.9 °F 74.7 °F 29.93 in South 8.1 mph 2.8 mph 65% 0.00 in 149.00 W/m2
14:44 87.1 °F 74.4 °F 29.92 in Calm     66% 0.00 in 155.00 W/m2
14:49 86.6 °F 73.9 °F 29.92 in SSW 1.2 mph   66% 0.00 in 181.00 W/m2
14:54 86.5 °F 74.7 °F 29.92 in Calm     68% 0.00 in 274.00 W/m2
14:59 86.4 °F 74.6 °F 29.92 in Calm     68% 0.00 in 207.00 W/m2
15:04 86.3 °F 74.0 °F 29.92 in SSW 3.0 mph 2.6 mph 67% 0.00 in 174.00 W/m2
15:09 86.1 °F 72.5 °F 29.92 in SSW 3.5 mph 0.1 mph 64% 0.00 in 149.00 W/m2
15:14 86.0 °F 73.3 °F 29.92 in SSW 3.5 mph   66% 0.00 in 246.00 W/m2
15:19 86.8 °F 73.6 °F 29.91 in South 5.8 mph 1.8 mph 65% 0.00 in 329.00 W/m2
15:24 87.4 °F 74.2 °F 29.91 in South 8.1 mph 1.6 mph 65% 0.00 in 831.00 W/m2
15:29 88.1 °F 73.9 °F 29.91 in North 3.5 mph 2.1 mph 63% 0.00 in 812.00 W/m2
15:34 87.8 °F 73.6 °F 29.91 in SSW 2.3 mph   63% 0.00 in 214.00 W/m2
15:39 87.4 °F 73.7 °F 29.91 in SSW 6.9 mph   64% 0.00 in 223.00 W/m2
15:44 87.1 °F 73.4 °F 29.91 in Calm     64% 0.00 in 209.00 W/m2
15:49 87.0 °F 73.8 °F 29.91 in South 5.8 mph 0.9 mph 65% 0.00 in 225.00 W/m2
15:54 87.6 °F 73.4 °F 29.91 in SSW 3.5 mph 3.6 mph 63% 0.00 in 744.00 W/m2
15:59 88.6 °F 74.9 °F 29.91 in SSW 10.4 mph 4.2 mph 64% 0.00 in 747.00 W/m2
16:04 89.1 °F 75.3 °F 29.90 in South 4.0 mph 1.4 mph 64% 0.00 in 731.00 W/m2
16:09 89.3 °F 74.6 °F 29.90 in SSW 3.5 mph 1.9 mph 62% 0.00 in 728.00 W/m2
16:14 89.6 °F 75.8 °F 29.90 in SSW 2.3 mph 0.8 mph 64% 0.00 in 701.00 W/m2
16:19 89.0 °F 74.3 °F 29.90 in SSW 4.6 mph   62% 0.00 in 181.00 W/m2
16:24 88.7 °F 75.0 °F 29.90 in SSW 4.6 mph 0.9 mph 64% 0.00 in 729.00 W/m2
16:29 89.2 °F 75.4 °F 29.90 in SSE 5.8 mph 1.2 mph 64% 0.00 in 714.00 W/m2
16:34 89.8 °F 75.0 °F 29.90 in SW 9.2 mph 3.3 mph 62% 0.00 in 673.00 W/m2
16:39 89.7 °F 74.9 °F 29.90 in SW 2.3 mph 0.7 mph 62% 0.00 in 684.00 W/m2
16:44 90.1 °F 75.8 °F 29.90 in North 3.5 mph   63% 0.00 in 679.00 W/m2
16:49 89.9 °F 76.1 °F 29.90 in SSE 6.9 mph 2.1 mph 64% 0.00 in 680.00 W/m2
16:54 89.6 °F 75.8 °F 29.90 in SSW 4.6 mph 2.1 mph 64% 0.00 in 661.00 W/m2
16:59 89.3 °F 75.0 °F 29.90 in SSE 5.8 mph 3.0 mph 63% 0.00 in 647.00 W/m2
17:04 89.1 °F 75.3 °F 29.89 in SSE 5.0 mph 0.5 mph 64% 0.00 in 566.00 W/m2
17:09 88.4 °F 75.1 °F 29.89 in SSE 3.5 mph 0.7 mph 65% 0.00 in 146.00 W/m2
17:14 87.4 °F 75.1 °F 29.89 in SSE 4.0 mph 1.4 mph 67% 0.00 in 118.00 W/m2
17:19 86.7 °F 75.3 °F 29.89 in Calm     69% 0.00 in 107.00 W/m2
17:24 86.1 °F 74.7 °F 29.89 in SSE 4.6 mph 0.6 mph 69% 0.00 in 83.00 W/m2
17:29 85.7 °F 75.2 °F 29.89 in SSE 3.5 mph   71% 0.00 in 65.00 W/m2
17:34 85.2 °F 74.7 °F 29.89 in SSE 1.2 mph 0.1 mph 71% 0.00 in 65.00 W/m2
17:39 84.9 °F 74.9 °F 29.89 in Calm     72% 0.00 in 63.00 W/m2
17:44 84.6 °F 75.0 °F 29.89 in Calm     73% 0.00 in 69.00 W/m2
17:49 84.5 °F 75.7 °F 29.89 in Calm     75% 0.00 in 88.00 W/m2
17:54 84.4 °F 75.6 °F 29.89 in Calm     75% 0.00 in 111.00 W/m2
17:59 84.1 °F 76.1 °F 29.89 in WNW 6.9 mph 1.6 mph 77% 0.00 in 120.00 W/m2
18:04 83.6 °F 76.0 °F 29.89 in Calm     78% 0.00 in 155.00 W/m2
18:09 83.1 °F 75.9 °F 29.89 in Calm     79% 0.00 in 211.00 W/m2
18:14 82.9 °F 76.5 °F 29.89 in NW 5.0 mph 1.4 mph 81% 0.00 in 346.00 W/m2
18:19 83.0 °F 77.3 °F 29.88 in Calm     83% 0.00 in 165.00 W/m2
18:24 82.4 °F 75.6 °F 29.88 in NNW 6.9 mph 0.3 mph 80% 0.01 in 306.00 W/m2
18:29 82.3 °F 76.6 °F 29.88 in NNW 1.2 mph   83% 0.01 in 308.00 W/m2
18:34 82.4 °F 76.7 °F 29.88 in Calm     83% 0.01 in 160.00 W/m2
18:39 82.7 °F 77.4 °F 29.88 in Calm     84% 0.01 in 193.00 W/m2
18:44 82.7 °F 77.4 °F 29.88 in Calm     84% 0.01 in 113.00 W/m2
18:49 82.4 °F 77.4 °F 29.88 in Calm     85% 0.01 in 100.00 W/m2
18:54 82.3 °F 77.7 °F 29.88 in Calm     86% 0.01 in 90.00 W/m2
18:59 81.9 °F 77.3 °F 29.88 in Calm     86% 0.01 in 139.00 W/m2
19:04 82.0 °F 77.7 °F 29.88 in Calm     87% 0.01 in 90.00 W/m2
19:09 81.9 °F 77.6 °F 29.88 in Calm     87% 0.01 in 128.00 W/m2
19:14 82.1 °F 77.8 °F 29.88 in Calm     87% 0.01 in 81.00 W/m2
19:19 82.2 °F 77.9 °F 29.88 in Calm     87% 0.01 in 127.00 W/m2
19:24 82.1 °F 77.8 °F 29.87 in Calm     87% 0.00 in 84.00 W/m2
19:29 82.1 °F 77.5 °F 29.88 in Calm     86% 0.00 in 62.00 W/m2
19:34 82.1 °F 77.8 °F 29.88 in Calm     87% 0.00 in 56.00 W/m2
19:39 82.1 °F 77.8 °F 29.88 in Calm     87% 0.00 in 47.00 W/m2
19:44 82.0 °F 77.7 °F 29.87 in Calm     87% 0.00 in 37.00 W/m2
19:49 81.7 °F 77.1 °F 29.88 in Calm     86% 0.00 in 26.00 W/m2
19:54 81.4 °F 77.2 °F 29.88 in Calm     87% 0.00 in 23.00 W/m2
19:59 81.1 °F 76.9 °F 29.88 in Calm     87% 0.00 in 18.00 W/m2
20:04 80.6 °F 76.4 °F 29.88 in Calm     87% 0.00 in 12.00 W/m2
20:09 80.4 °F 76.5 °F 29.88 in Calm     88% 0.00 in 9.00 W/m2
20:14 80.2 °F 76.3 °F 29.88 in Calm     88% 0.00 in 7.00 W/m2
20:19 80.0 °F 76.1 °F 29.88 in Calm     88% 0.00 in 0.00 W/m2
20:24 79.7 °F 76.2 °F 29.88 in Calm     89% 0.00 in 0.00 W/m2
20:29 79.3 °F 75.8 °F 29.88 in Calm     89% 0.00 in 0.00 W/m2
20:34 79.0 °F 75.5 °F 29.88 in Calm     89% 0.00 in 0.00 W/m2
20:39 78.8 °F 75.6 °F 29.88 in Calm     90% 0.00 in 0.00 W/m2
20:44 78.5 °F 75.0 °F 29.88 in Calm     89% 0.00 in 0.00 W/m2
20:49 78.2 °F 75.0 °F 29.88 in Calm     90% 0.00 in 0.00 W/m2
20:54 77.9 °F 74.7 °F 29.89 in Calm     90% 0.00 in 0.00 W/m2
20:59 77.6 °F 74.4 °F 29.89 in Calm     90% 0.00 in 0.00 W/m2
21:04 77.0 °F 73.8 °F 29.89 in Calm     90% 0.00 in 0.00 W/m2
21:09 77.0 °F 74.2 °F 29.89 in Calm     91% 0.00 in 0.00 W/m2
21:14 76.8 °F 74.0 °F 29.90 in Calm     91% 0.00 in 0.00 W/m2
21:19 76.7 °F 73.9 °F 29.90 in Calm     91% 0.00 in 0.00 W/m2
21:24 76.6 °F 74.1 °F 29.91 in Calm     92% 0.00 in 0.00 W/m2
21:29 76.4 °F 73.6 °F 29.91 in Calm     91% 0.00 in 0.00 W/m2
21:34 76.2 °F 73.7 °F 29.91 in Calm     92% 0.00 in 0.00 W/m2
21:39 76.1 °F 73.6 °F 29.91 in Calm     92% 0.00 in 0.00 W/m2
21:44 76.2 °F 73.7 °F 29.91 in Calm     92% 0.00 in 0.00 W/m2
21:49 76.3 °F 73.8 °F 29.91 in Calm     92% 0.00 in 0.00 W/m2
21:54 76.3 °F 73.8 °F 29.91 in Calm     92% 0.00 in 0.00 W/m2
21:59 76.4 °F 73.9 °F 29.92 in Calm     92% 0.00 in 0.00 W/m2
22:04 76.4 °F 73.9 °F 29.92 in Calm     92% 0.00 in 0.00 W/m2
22:09 76.3 °F 73.8 °F 29.92 in Calm     92% 0.00 in 0.00 W/m2
22:14 76.2 °F 73.7 °F 29.92 in Calm     92% 0.00 in 0.00 W/m2
22:19 76.2 °F 73.7 °F 29.91 in Calm     92% 0.00 in 0.00 W/m2
22:24 76.0 °F 73.5 °F 29.91 in Calm     92% 0.00 in 0.00 W/m2
22:29 75.9 °F 73.4 °F 29.91 in Calm     92% 0.00 in 0.00 W/m2
22:34 76.0 °F 73.5 °F 29.91 in Calm     92% 0.00 in 0.00 W/m2
22:39 76.0 °F 73.5 °F 29.91 in Calm     92% 0.00 in 0.00 W/m2
22:44 76.0 °F 73.5 °F 29.91 in Calm     92% 0.00 in 0.00 W/m2
22:49 75.9 °F 73.4 °F 29.91 in Calm     92% 0.00 in 0.00 W/m2
22:54 75.7 °F 73.2 °F 29.91 in Calm     92% 0.00 in 0.00 W/m2
22:59 75.5 °F 73.0 °F 29.91 in Calm     92% 0.00 in 0.00 W/m2
23:04 75.4 °F 72.9 °F 29.91 in Calm     92% 0.00 in 0.00 W/m2
23:09 75.3 °F 72.8 °F 29.91 in Calm     92% 0.00 in 0.00 W/m2
23:14 75.3 °F 72.8 °F 29.91 in Calm     92% 0.00 in 0.00 W/m2
23:19 75.0 °F 72.5 °F 29.91 in Calm     92% 0.00 in 0.00 W/m2
23:24 74.8 °F 72.3 °F 29.91 in Calm     92% 0.00 in 0.00 W/m2
23:29 74.7 °F 72.2 °F 29.91 in Calm     92% 0.00 in 0.00 W/m2
23:34 74.6 °F 72.1 °F 29.91 in Calm     92% 0.00 in 0.00 W/m2
23:39 74.4 °F 72.2 °F 29.91 in Calm     93% 0.00 in 0.00 W/m2
23:44 74.3 °F 72.1 °F 29.92 in Calm     93% 0.00 in 0.00 W/m2
23:49 74.2 °F 72.0 °F 29.91 in Calm     93% 0.00 in 0.00 W/m2
23:54 73.7 °F 71.2 °F 29.91 in Calm     92% 0.00 in 0.00 W/m2
23:59 74.0 °F 71.8 °F 29.91 in Calm     93% 0.00 in 0.00 W/m2
Bourbonnais, Illinois, USA
Compliments of Weather Underground - 4 mb